sensor_id;sensor_type;location;lat;lon;timestamp;pressure;altitude;pressure_sealevel;temperature;humidity
69535;BME280;56754;51.568;5.048;2023-01-20T00:01:51;101002.47;;;11.28;55.75
69535;BME280;56754;51.568;5.048;2023-01-20T00:04:16;101002.13;;;11.21;56.07
69535;BME280;56754;51.568;5.048;2023-01-20T00:06:41;101002.56;;;11.14;56.32
69535;BME280;56754;51.568;5.048;2023-01-20T00:09:07;101005.69;;;11.07;56.33
69535;BME280;56754;51.568;5.048;2023-01-20T00:11:32;100998.72;;;10.98;56.24
69535;BME280;56754;51.568;5.048;2023-01-20T00:14:00;101009.06;;;10.90;56.28
69535;BME280;56754;51.568;5.048;2023-01-20T00:16:27;101007.94;;;10.83;56.79
69535;BME280;56754;51.568;5.048;2023-01-20T00:18:53;101004.59;;;10.77;56.87
69535;BME280;56754;51.568;5.048;2023-01-20T00:21:19;101009.09;;;10.68;56.39
69535;BME280;56754;51.568;5.048;2023-01-20T00:23:45;101008.72;;;10.61;57.05
69535;BME280;56754;51.568;5.048;2023-01-20T00:26:13;101013.13;;;10.57;57.36
69535;BME280;56754;51.568;5.048;2023-01-20T00:28:39;101012.44;;;10.51;57.27
69535;BME280;56754;51.568;5.048;2023-01-20T00:31:19;101015.22;;;10.46;57.49
69535;BME280;56754;51.568;5.048;2023-01-20T00:33:45;101018.00;;;10.41;57.75
69535;BME280;56754;51.568;5.048;2023-01-20T00:36:12;101022.38;;;10.37;57.64
69535;BME280;56754;51.568;5.048;2023-01-20T00:38:38;101021.44;;;10.33;57.55
69535;BME280;56754;51.568;5.048;2023-01-20T00:41:03;101021.53;;;10.28;57.94
69535;BME280;56754;51.568;5.048;2023-01-20T00:43:29;101028.56;;;10.23;57.87
69535;BME280;56754;51.568;5.048;2023-01-20T00:45:54;101033.22;;;10.18;57.59
69535;BME280;56754;51.568;5.048;2023-01-20T00:48:19;101029.88;;;10.12;57.42
69535;BME280;56754;51.568;5.048;2023-01-20T00:50:44;101024.63;;;10.07;57.39
69535;BME280;56754;51.568;5.048;2023-01-20T00:53:10;101033.53;;;10.02;58.00
69535;BME280;56754;51.568;5.048;2023-01-20T00:55:35;101037.59;;;10.00;58.08
69535;BME280;56754;51.568;5.048;2023-01-20T00:58:00;101033.94;;;9.96;57.37
69535;BME280;56754;51.568;5.048;2023-01-20T01:00:26;101035.91;;;9.90;58.41
69535;BME280;56754;51.568;5.048;2023-01-20T01:02:51;101041.06;;;9.87;57.75
69535;BME280;56754;51.568;5.048;2023-01-20T01:05:16;101053.44;;;9.83;58.24
69535;BME280;56754;51.568;5.048;2023-01-20T01:07:41;101053.25;;;9.79;59.07
69535;BME280;56754;51.568;5.048;2023-01-20T01:10:07;101051.97;;;9.76;58.80
69535;BME280;56754;51.568;5.048;2023-01-20T01:12:33;101058.69;;;9.74;59.57
69535;BME280;56754;51.568;5.048;2023-01-20T01:14:58;101053.94;;;9.71;59.34
69535;BME280;56754;51.568;5.048;2023-01-20T01:17:24;101063.03;;;9.70;59.41
69535;BME280;56754;51.568;5.048;2023-01-20T01:19:52;101059.88;;;9.68;58.86
69535;BME280;56754;51.568;5.048;2023-01-20T01:22:19;101060.94;;;9.67;58.83
69535;BME280;56754;51.568;5.048;2023-01-20T01:24:45;101060.75;;;9.63;59.45
69535;BME280;56754;51.568;5.048;2023-01-20T01:27:10;101054.91;;;9.61;59.59
69535;BME280;56754;51.568;5.048;2023-01-20T01:29:36;101049.38;;;9.57;60.20
69535;BME280;56754;51.568;5.048;2023-01-20T01:32:01;101045.44;;;9.55;59.56
69535;BME280;56754;51.568;5.048;2023-01-20T01:34:27;101057.50;;;9.52;60.44
69535;BME280;56754;51.568;5.048;2023-01-20T01:36:52;101059.38;;;9.52;60.81
69535;BME280;56754;51.568;5.048;2023-01-20T01:39:17;101062.34;;;9.50;60.55
69535;BME280;56754;51.568;5.048;2023-01-20T01:41:43;101066.91;;;9.50;60.34
69535;BME280;56754;51.568;5.048;2023-01-20T01:44:11;101070.63;;;9.49;60.43
69535;BME280;56754;51.568;5.048;2023-01-20T01:46:37;101066.66;;;9.46;60.67
69535;BME280;56754;51.568;5.048;2023-01-20T01:49:21;101080.00;;;9.46;60.55
69535;BME280;56754;51.568;5.048;2023-01-20T01:51:58;101078.75;;;9.44;60.62
69535;BME280;56754;51.568;5.048;2023-01-20T01:54:29;101084.69;;;9.41;60.18
69535;BME280;56754;51.568;5.048;2023-01-20T01:56:56;101086.84;;;9.39;60.18
69535;BME280;56754;51.568;5.048;2023-01-20T01:59:22;101095.44;;;9.36;61.28
69535;BME280;56754;51.568;5.048;2023-01-20T02:01:49;101090.38;;;9.34;59.88
69535;BME280;56754;51.568;5.048;2023-01-20T02:04:18;101090.69;;;9.32;60.77
69535;BME280;56754;51.568;5.048;2023-01-20T02:06:55;101074.19;;;9.30;60.54
69535;BME280;56754;51.568;5.048;2023-01-20T02:09:22;101094.34;;;9.37;61.49
69535;BME280;56754;51.568;5.048;2023-01-20T02:11:51;101089.72;;;9.56;60.29
69535;BME280;56754;51.568;5.048;2023-01-20T02:14:20;101088.75;;;9.79;59.81
69535;BME280;56754;51.568;5.048;2023-01-20T02:25:07;101085.81;;;10.67;57.76
69535;BME280;56754;51.568;5.048;2023-01-20T02:32:55;101070.44;;;11.27;55.75
69535;BME280;56754;51.568;5.048;2023-01-20T02:35:33;101065.91;;;11.27;54.77
69535;BME280;56754;51.568;5.048;2023-01-20T02:38:35;101086.50;;;11.27;54.65
69535;BME280;56754;51.568;5.048;2023-01-20T02:44:06;101081.59;;;11.20;54.53
69535;BME280;56754;51.568;5.048;2023-01-20T02:49:26;101071.50;;;11.17;54.12
69535;BME280;56754;51.568;5.048;2023-01-20T02:52:10;101082.81;;;11.14;53.77
69535;BME280;56754;51.568;5.048;2023-01-20T02:54:41;101080.59;;;11.07;53.73
69535;BME280;56754;51.568;5.048;2023-01-20T02:57:11;101082.59;;;11.02;54.46
69535;BME280;56754;51.568;5.048;2023-01-20T02:59:50;101091.69;;;10.92;54.88
69535;BME280;56754;51.568;5.048;2023-01-20T03:02:19;101082.81;;;10.83;55.00
69535;BME280;56754;51.568;5.048;2023-01-20T03:04:53;101091.06;;;10.73;55.56
69535;BME280;56754;51.568;5.048;2023-01-20T03:07:22;101086.63;;;10.68;56.32
69535;BME280;56754;51.568;5.048;2023-01-20T03:09:51;101084.84;;;10.63;56.04
69535;BME280;56754;51.568;5.048;2023-01-20T03:12:33;101080.72;;;10.57;57.13
69535;BME280;56754;51.568;5.048;2023-01-20T03:15:00;101095.78;;;10.53;57.13
69535;BME280;56754;51.568;5.048;2023-01-20T03:17:26;101089.44;;;10.49;57.61
69535;BME280;56754;51.568;5.048;2023-01-20T03:19:51;101090.38;;;10.44;57.71
69535;BME280;56754;51.568;5.048;2023-01-20T03:22:17;101085.91;;;10.40;57.63
69535;BME280;56754;51.568;5.048;2023-01-20T03:24:44;101085.72;;;10.36;58.02
69535;BME280;56754;51.568;5.048;2023-01-20T03:27:11;101085.72;;;10.36;57.85
69535;BME280;56754;51.568;5.048;2023-01-20T03:29:37;101095.72;;;10.44;57.60
69535;BME280;56754;51.568;5.048;2023-01-20T03:32:03;101100.72;;;10.60;57.47
69535;BME280;56754;51.568;5.048;2023-01-20T03:34:34;101097.19;;;10.73;57.26
69535;BME280;56754;51.568;5.048;2023-01-20T03:37:01;101107.34;;;10.85;57.05
69535;BME280;56754;51.568;5.048;2023-01-20T03:39:27;101100.16;;;10.94;56.41
69535;BME280;56754;51.568;5.048;2023-01-20T03:49:53;101101.63;;;11.54;54.28
69535;BME280;56754;51.568;5.048;2023-01-20T03:52:30;101104.91;;;11.51;54.11
69535;BME280;56754;51.568;5.048;2023-01-20T03:55:01;101103.47;;;11.45;54.01
69535;BME280;56754;51.568;5.048;2023-01-20T03:57:37;101107.06;;;11.40;54.11
69535;BME280;56754;51.568;5.048;2023-01-20T04:00:07;101102.31;;;11.37;54.31
69535;BME280;56754;51.568;5.048;2023-01-20T04:02:33;101113.63;;;11.34;53.95
69535;BME280;56754;51.568;5.048;2023-01-20T04:05:01;101108.13;;;11.30;54.17
69535;BME280;56754;51.568;5.048;2023-01-20T04:07:28;101110.28;;;11.28;54.23
69535;BME280;56754;51.568;5.048;2023-01-20T04:09:57;101108.41;;;11.29;54.58
69535;BME280;56754;51.568;5.048;2023-01-20T04:12:24;101112.06;;;11.33;54.37
69535;BME280;56754;51.568;5.048;2023-01-20T04:14:49;101121.22;;;11.41;54.39
69535;BME280;56754;51.568;5.048;2023-01-20T04:17:15;101115.47;;;11.56;54.20
69535;BME280;56754;51.568;5.048;2023-01-20T04:19:40;101107.19;;;11.66;53.71
69535;BME280;56754;51.568;5.048;2023-01-20T04:22:43;101111.25;;;11.64;53.42
69535;BME280;56754;51.568;5.048;2023-01-20T04:25:12;101108.41;;;11.60;53.23
69535;BME280;56754;51.568;5.048;2023-01-20T04:27:38;101113.09;;;11.54;53.11
69535;BME280;56754;51.568;5.048;2023-01-20T04:30:03;101112.13;;;11.50;53.42
69535;BME280;56754;51.568;5.048;2023-01-20T04:32:29;101109.00;;;11.48;53.45
69535;BME280;56754;51.568;5.048;2023-01-20T04:34:54;101111.50;;;11.45;53.65
69535;BME280;56754;51.568;5.048;2023-01-20T04:37:19;101116.66;;;11.41;53.82
69535;BME280;56754;51.568;5.048;2023-01-20T04:39:45;101122.78;;;11.42;54.00
69535;BME280;56754;51.568;5.048;2023-01-20T04:42:10;101120.00;;;11.47;53.91
69535;BME280;56754;51.568;5.048;2023-01-20T04:44:36;101119.41;;;11.58;54.04
69535;BME280;56754;51.568;5.048;2023-01-20T04:47:01;101111.94;;;11.78;54.29
69535;BME280;56754;51.568;5.048;2023-01-20T04:49:26;101111.84;;;11.92;53.27
69535;BME280;56754;51.568;5.048;2023-01-20T04:51:51;101122.41;;;11.88;52.48
69535;BME280;56754;51.568;5.048;2023-01-20T04:54:17;101131.16;;;11.80;52.71
69535;BME280;56754;51.568;5.048;2023-01-20T04:56:42;101131.59;;;11.73;52.59
69535;BME280;56754;51.568;5.048;2023-01-20T04:59:07;101136.31;;;11.68;52.87
69535;BME280;56754;51.568;5.048;2023-01-20T05:01:33;101143.69;;;11.62;52.97
69535;BME280;56754;51.568;5.048;2023-01-20T05:03:58;101133.13;;;11.57;52.96
69535;BME280;56754;51.568;5.048;2023-01-20T05:06:23;101134.53;;;11.54;52.96
69535;BME280;56754;51.568;5.048;2023-01-20T05:08:48;101128.38;;;11.54;53.42
69535;BME280;56754;51.568;5.048;2023-01-20T05:11:14;101119.78;;;11.66;53.78
69535;BME280;56754;51.568;5.048;2023-01-20T05:13:39;101117.47;;;11.81;53.67
69535;BME280;56754;51.568;5.048;2023-01-20T05:16:07;101132.38;;;12.05;53.33
69535;BME280;56754;51.568;5.048;2023-01-20T05:18:33;101133.34;;;12.18;52.93
69535;BME280;56754;51.568;5.048;2023-01-20T05:20:58;101136.50;;;12.20;52.52
69535;BME280;56754;51.568;5.048;2023-01-20T05:23:23;101146.09;;;12.12;52.36
69535;BME280;56754;51.568;5.048;2023-01-20T05:25:50;101147.66;;;12.04;52.27
69535;BME280;56754;51.568;5.048;2023-01-20T05:28:15;101144.97;;;11.96;52.56
69535;BME280;56754;51.568;5.048;2023-01-20T05:30:40;101137.69;;;11.88;52.35
69535;BME280;56754;51.568;5.048;2023-01-20T05:33:06;101139.50;;;11.78;52.52
69535;BME280;56754;51.568;5.048;2023-01-20T05:35:31;101137.75;;;11.74;52.94
69535;BME280;56754;51.568;5.048;2023-01-20T05:37:56;101138.72;;;11.78;52.81
69535;BME280;56754;51.568;5.048;2023-01-20T05:40:21;101143.38;;;11.86;53.22
69535;BME280;56754;51.568;5.048;2023-01-20T05:42:47;101146.06;;;12.03;52.98
69535;BME280;56754;51.568;5.048;2023-01-20T05:45:12;101146.59;;;12.23;52.25
69535;BME280;56754;51.568;5.048;2023-01-20T05:47:37;101144.88;;;12.36;52.35
69535;BME280;56754;51.568;5.048;2023-01-20T05:50:03;101142.06;;;12.32;51.83
69535;BME280;56754;51.568;5.048;2023-01-20T05:52:29;101147.72;;;12.22;51.90
69535;BME280;56754;51.568;5.048;2023-01-20T05:54:54;101144.53;;;12.11;52.01
69535;BME280;56754;51.568;5.048;2023-01-20T05:57:23;101150.97;;;12.01;52.01
69535;BME280;56754;51.568;5.048;2023-01-20T05:59:48;101153.63;;;11.93;52.42
69535;BME280;56754;51.568;5.048;2023-01-20T06:02:13;101157.38;;;11.92;52.71
69535;BME280;56754;51.568;5.048;2023-01-20T06:04:39;101160.56;;;12.02;52.96
69535;BME280;56754;51.568;5.048;2023-01-20T06:07:04;101161.25;;;12.17;52.66
69535;BME280;56754;51.568;5.048;2023-01-20T06:09:29;101167.44;;;12.35;52.24
69535;BME280;56754;51.568;5.048;2023-01-20T06:11:54;101164.63;;;12.48;51.44
69535;BME280;56754;51.568;5.048;2023-01-20T06:14:20;101166.69;;;12.51;51.32
69535;BME280;56754;51.568;5.048;2023-01-20T06:16:45;101167.94;;;12.45;51.17
69535;BME280;56754;51.568;5.048;2023-01-20T06:19:10;101165.56;;;12.35;51.25
69535;BME280;56754;51.568;5.048;2023-01-20T06:21:36;101158.59;;;12.25;51.45
69535;BME280;56754;51.568;5.048;2023-01-20T06:24:01;101153.84;;;12.14;51.54
69535;BME280;56754;51.568;5.048;2023-01-20T06:26:26;101153.03;;;12.04;51.96
69535;BME280;56754;51.568;5.048;2023-01-20T06:28:51;101148.94;;;12.07;52.45
69535;BME280;56754;51.568;5.048;2023-01-20T06:31:17;101148.66;;;12.17;52.69
69535;BME280;56754;51.568;5.048;2023-01-20T06:33:42;101157.03;;;12.33;52.48
69535;BME280;56754;51.568;5.048;2023-01-20T06:36:08;101158.16;;;12.49;52.27
69535;BME280;56754;51.568;5.048;2023-01-20T06:38:34;101160.22;;;12.61;51.79
69535;BME280;56754;51.568;5.048;2023-01-20T06:41:02;101160.22;;;12.61;51.30
69535;BME280;56754;51.568;5.048;2023-01-20T06:43:28;101150.75;;;12.55;51.19
69535;BME280;56754;51.568;5.048;2023-01-20T06:46:00;101157.84;;;12.42;51.02
69535;BME280;56754;51.568;5.048;2023-01-20T06:48:25;101154.19;;;12.29;51.26
69535;BME280;56754;51.568;5.048;2023-01-20T06:50:51;101157.47;;;12.18;51.68
69535;BME280;56754;51.568;5.048;2023-01-20T06:53:16;101151.78;;;12.11;51.64
69535;BME280;56754;51.568;5.048;2023-01-20T06:55:41;101154.63;;;12.14;52.38
69535;BME280;56754;51.568;5.048;2023-01-20T06:58:06;101149.44;;;12.26;52.54
69535;BME280;56754;51.568;5.048;2023-01-20T07:00:32;101155.97;;;12.43;52.36
69535;BME280;56754;51.568;5.048;2023-01-20T07:02:57;101152.81;;;12.58;51.91
69535;BME280;56754;51.568;5.048;2023-01-20T07:05:22;101155.19;;;12.68;51.53
69535;BME280;56754;51.568;5.048;2023-01-20T07:07:47;101162.75;;;12.66;51.33
69535;BME280;56754;51.568;5.048;2023-01-20T07:10:13;101158.97;;;12.59;51.20
69535;BME280;56754;51.568;5.048;2023-01-20T07:12:38;101155.00;;;12.47;51.28
69535;BME280;56754;51.568;5.048;2023-01-20T07:15:04;101158.00;;;12.37;51.31
69535;BME280;56754;51.568;5.048;2023-01-20T07:17:29;101161.28;;;12.25;51.43
69535;BME280;56754;51.568;5.048;2023-01-20T07:19:54;101163.31;;;12.20;52.04
69535;BME280;56754;51.568;5.048;2023-01-20T07:22:20;101174.34;;;12.27;52.56
69535;BME280;56754;51.568;5.048;2023-01-20T07:24:45;101178.19;;;12.43;52.05
69535;BME280;56754;51.568;5.048;2023-01-20T07:27:10;101188.47;;;12.59;51.83
69535;BME280;56754;51.568;5.048;2023-01-20T07:29:36;101194.00;;;12.71;51.64
69535;BME280;56754;51.568;5.048;2023-01-20T07:32:01;101189.91;;;12.73;51.58
69535;BME280;56754;51.568;5.048;2023-01-20T07:34:26;101192.41;;;12.70;51.31
69535;BME280;56754;51.568;5.048;2023-01-20T07:36:52;101187.84;;;12.62;51.25
69535;BME280;56754;51.568;5.048;2023-01-20T07:39:17;101189.72;;;12.52;51.20
69535;BME280;56754;51.568;5.048;2023-01-20T07:41:42;101194.91;;;12.40;51.84
69535;BME280;56754;51.568;5.048;2023-01-20T07:44:07;101188.09;;;12.34;51.80
69535;BME280;56754;51.568;5.048;2023-01-20T07:46:33;101194.75;;;12.37;52.44
69535;BME280;56754;51.568;5.048;2023-01-20T07:48:58;101191.44;;;12.48;51.94
69535;BME280;56754;51.568;5.048;2023-01-20T07:51:23;101191.63;;;12.61;52.02
69535;BME280;56754;51.568;5.048;2023-01-20T07:53:49;101186.72;;;12.71;51.61
69535;BME280;56754;51.568;5.048;2023-01-20T07:56:17;101190.84;;;12.78;51.45
69535;BME280;56754;51.568;5.048;2023-01-20T07:58:43;101195.41;;;12.77;51.48
69535;BME280;56754;51.568;5.048;2023-01-20T08:01:14;101197.66;;;12.75;51.42
69535;BME280;56754;51.568;5.048;2023-01-20T08:03:39;101197.31;;;12.68;51.31
69535;BME280;56754;51.568;5.048;2023-01-20T08:06:07;101200.75;;;12.60;50.90
69535;BME280;56754;51.568;5.048;2023-01-20T08:08:33;101204.53;;;12.50;51.56
69535;BME280;56754;51.568;5.048;2023-01-20T08:10:59;101203.25;;;12.47;52.09
69535;BME280;56754;51.568;5.048;2023-01-20T08:13:24;101203.28;;;12.56;51.79
69535;BME280;56754;51.568;5.048;2023-01-20T08:15:49;101213.41;;;12.68;51.81
69535;BME280;56754;51.568;5.048;2023-01-20T08:18:15;101210.41;;;12.78;51.36
69535;BME280;56754;51.568;5.048;2023-01-20T08:20:40;101217.22;;;12.84;51.38
69535;BME280;56754;51.568;5.048;2023-01-20T08:23:05;101214.97;;;12.86;51.33
69535;BME280;56754;51.568;5.048;2023-01-20T08:25:31;101222.88;;;12.83;51.22
69535;BME280;56754;51.568;5.048;2023-01-20T08:27:56;101220.34;;;12.78;51.17
69535;BME280;56754;51.568;5.048;2023-01-20T08:30:21;101219.25;;;12.70;51.21
69535;BME280;56754;51.568;5.048;2023-01-20T08:32:46;101221.56;;;12.63;51.11
69535;BME280;56754;51.568;5.048;2023-01-20T08:35:12;101227.41;;;12.56;51.79
69535;BME280;56754;51.568;5.048;2023-01-20T08:37:37;101224.25;;;12.63;51.83
69535;BME280;56754;51.568;5.048;2023-01-20T08:40:08;101229.97;;;12.70;51.56
69535;BME280;56754;51.568;5.048;2023-01-20T08:42:34;101223.03;;;12.78;51.44
69535;BME280;56754;51.568;5.048;2023-01-20T08:45:00;101219.56;;;12.86;51.42
69535;BME280;56754;51.568;5.048;2023-01-20T08:47:25;101225.09;;;12.89;51.32
69535;BME280;56754;51.568;5.048;2023-01-20T08:49:52;101229.22;;;12.87;51.25
69535;BME280;56754;51.568;5.048;2023-01-20T08:52:18;101224.78;;;12.82;51.34
69535;BME280;56754;51.568;5.048;2023-01-20T08:54:43;101223.03;;;12.78;51.33
69535;BME280;56754;51.568;5.048;2023-01-20T08:57:09;101224.28;;;12.71;51.27
69535;BME280;56754;51.568;5.048;2023-01-20T08:59:34;101222.56;;;12.67;51.39
69535;BME280;56754;51.568;5.048;2023-01-20T09:01:59;101227.28;;;12.70;51.53
69535;BME280;56754;51.568;5.048;2023-01-20T09:04:24;101226.81;;;12.77;51.56
69535;BME280;56754;51.568;5.048;2023-01-20T09:06:50;101236.28;;;12.83;51.59
69535;BME280;56754;51.568;5.048;2023-01-20T09:09:17;101234.09;;;12.93;51.54
69535;BME280;56754;51.568;5.048;2023-01-20T09:11:43;101236.63;;;12.98;51.59
69535;BME280;56754;51.568;5.048;2023-01-20T09:14:09;101233.78;;;12.95;51.74
69535;BME280;56754;51.568;5.048;2023-01-20T09:16:34;101238.50;;;12.89;51.50
69535;BME280;56754;51.568;5.048;2023-01-20T09:18:59;101244.34;;;12.83;51.47
69535;BME280;56754;51.568;5.048;2023-01-20T09:21:25;101240.84;;;12.73;51.66
69535;BME280;56754;51.568;5.048;2023-01-20T09:23:50;101248.59;;;12.66;51.54
69535;BME280;56754;51.568;5.048;2023-01-20T09:26:15;101252.03;;;12.58;51.68
69535;BME280;56754;51.568;5.048;2023-01-20T09:28:40;101261.47;;;12.56;52.53
69535;BME280;56754;51.568;5.048;2023-01-20T09:31:07;101256.13;;;12.56;52.77
69535;BME280;56754;51.568;5.048;2023-01-20T09:33:35;101251.25;;;12.58;53.21
69535;BME280;56754;51.568;5.048;2023-01-20T09:36:02;101250.63;;;12.61;53.22
69535;BME280;56754;51.568;5.048;2023-01-20T09:38:28;101238.66;;;12.67;52.71
69535;BME280;56754;51.568;5.048;2023-01-20T09:43:59;101260.88;;;12.67;52.10
69535;BME280;56754;51.568;5.048;2023-01-20T09:54:13;101254.69;;;12.49;53.02
69535;BME280;56754;51.568;5.048;2023-01-20T09:56:46;101254.69;;;12.49;53.45
69535;BME280;56754;51.568;5.048;2023-01-20T09:59:36;101258.31;;;12.53;53.90
69535;BME280;56754;51.568;5.048;2023-01-20T10:02:05;101254.38;;;12.60;53.01
69535;BME280;56754;51.568;5.048;2023-01-20T10:04:45;101248.09;;;12.64;52.92
69535;BME280;56754;51.568;5.048;2023-01-20T10:07:44;101245.41;;;12.64;52.42
69535;BME280;56754;51.568;5.048;2023-01-20T10:10:27;101252.69;;;12.64;52.24
69535;BME280;56754;51.568;5.048;2023-01-20T10:13:33;101254.72;;;12.58;52.18
69535;BME280;56754;51.568;5.048;2023-01-20T10:16:04;101252.94;;;12.53;52.36
69535;BME280;56754;51.568;5.048;2023-01-20T10:18:50;101261.81;;;12.54;53.00
69535;BME280;56754;51.568;5.048;2023-01-20T10:21:21;101266.06;;;12.55;53.23
69535;BME280;56754;51.568;5.048;2023-01-20T10:23:54;101267.63;;;12.56;53.49
69535;BME280;56754;51.568;5.048;2023-01-20T10:26:33;101265.94;;;12.60;53.00
69535;BME280;56754;51.568;5.048;2023-01-20T10:29:03;101273.03;;;12.65;52.53
69535;BME280;56754;51.568;5.048;2023-01-20T10:31:34;101271.91;;;12.66;52.16
69535;BME280;56754;51.568;5.048;2023-01-20T10:34:05;101276.03;;;12.63;51.92
69535;BME280;56754;51.568;5.048;2023-01-20T10:36:33;101280.41;;;12.59;51.88
69535;BME280;56754;51.568;5.048;2023-01-20T10:39:04;101274.09;;;12.55;52.14
69535;BME280;56754;51.568;5.048;2023-01-20T10:41:44;101266.69;;;12.52;52.43
69535;BME280;56754;51.568;5.048;2023-01-20T10:44:12;101265.56;;;12.53;52.64
69535;BME280;56754;51.568;5.048;2023-01-20T10:52:43;101248.59;;;12.66;52.54
69535;BME280;56754;51.568;5.048;2023-01-20T10:55:23;101262.78;;;12.67;52.32
69535;BME280;56754;51.568;5.048;2023-01-20T10:57:58;101266.53;;;12.66;52.11
69535;BME280;56754;51.568;5.048;2023-01-20T11:00:28;101266.09;;;12.64;51.83
69535;BME280;56754;51.568;5.048;2023-01-20T11:02:56;101254.38;;;12.60;51.96
69535;BME280;56754;51.568;5.048;2023-01-20T11:05:30;101263.38;;;12.55;52.02
69535;BME280;56754;51.568;5.048;2023-01-20T11:07:58;101267.19;;;12.54;52.31
69535;BME280;56754;51.568;5.048;2023-01-20T11:10:26;101277.56;;;12.56;52.44
69535;BME280;56754;51.568;5.048;2023-01-20T11:12:58;101281.19;;;12.60;52.99
69535;BME280;56754;51.568;5.048;2023-01-20T11:15:27;101278.38;;;12.65;52.93
69535;BME280;56754;51.568;5.048;2023-01-20T11:20:37;101285.19;;;12.71;52.06
69535;BME280;56754;51.568;5.048;2023-01-20T11:23:36;101271.78;;;12.71;51.79
69535;BME280;56754;51.568;5.048;2023-01-20T11:26:21;101284.72;;;12.69;51.94
69535;BME280;56754;51.568;5.048;2023-01-20T11:29:01;101270.34;;;12.65;51.96
69535;BME280;56754;51.568;5.048;2023-01-20T11:36:43;101265.44;;;12.58;52.48
69535;BME280;56754;51.568;5.048;2023-01-20T11:39:25;101277.44;;;12.61;52.88
69535;BME280;56754;51.568;5.048;2023-01-20T11:42:10;101268.44;;;12.65;52.90
69535;BME280;56754;51.568;5.048;2023-01-20T11:45:01;101273.38;;;12.72;52.51
69535;BME280;56754;51.568;5.048;2023-01-20T11:47:35;101275.72;;;12.73;52.27
69535;BME280;56754;51.568;5.048;2023-01-20T11:52:34;101274.16;;;12.72;52.22
69535;BME280;56754;51.568;5.048;2023-01-20T11:57:38;101280.78;;;12.66;52.30
69535;BME280;56754;51.568;5.048;2023-01-20T12:06:31;101272.84;;;12.61;52.61
69535;BME280;56754;51.568;5.048;2023-01-20T12:08:44;101283.44;;;12.66;52.61
69535;BME280;56754;51.568;5.048;2023-01-20T12:11:13;101284.09;;;12.72;52.74
69535;BME280;56754;51.568;5.048;2023-01-20T12:13:45;101275.88;;;12.77;52.45
69535;BME280;56754;51.568;5.048;2023-01-20T12:16:16;101285.53;;;12.78;52.14
69535;BME280;56754;51.568;5.048;2023-01-20T12:18:45;101282.84;;;12.78;52.13
69535;BME280;56754;51.568;5.048;2023-01-20T12:21:16;101285.81;;;12.77;52.12
69535;BME280;56754;51.568;5.048;2023-01-20T12:24:06;101294.50;;;12.73;52.01
69535;BME280;56754;51.568;5.048;2023-01-20T12:26:34;101290.09;;;12.69;52.15
69535;BME280;56754;51.568;5.048;2023-01-20T12:29:38;101302.84;;;12.63;52.13
69535;BME280;56754;51.568;5.048;2023-01-20T12:32:04;101306.44;;;12.59;52.30
69535;BME280;56754;51.568;5.048;2023-01-20T12:34:30;101313.88;;;12.62;52.76
69535;BME280;56754;51.568;5.048;2023-01-20T12:45:57;101314.22;;;12.78;52.34
69535;BME280;56754;51.568;5.048;2023-01-20T12:53:43;101313.13;;;12.70;52.22
69535;BME280;56754;51.568;5.048;2023-01-20T13:01:49;101318.00;;;12.68;53.36
69535;BME280;56754;51.568;5.048;2023-01-20T13:15:27;101320.06;;;12.80;52.22
69535;BME280;56754;51.568;5.048;2023-01-20T13:20:24;101324.31;;;12.72;52.29
69535;BME280;56754;51.568;5.048;2023-01-20T13:22:50;101325.25;;;12.67;52.31
69535;BME280;56754;51.568;5.048;2023-01-20T13:25:17;101323.97;;;12.65;52.57
69535;BME280;56754;51.568;5.048;2023-01-20T13:27:44;101323.34;;;12.68;53.11
69535;BME280;56754;51.568;5.048;2023-01-20T13:33:02;101321.03;;;12.75;53.14
69535;BME280;56754;51.568;5.048;2023-01-20T13:37:58;101324.50;;;12.84;52.37
69535;BME280;56754;51.568;5.048;2023-01-20T13:43:00;101322.47;;;12.81;52.24
69535;BME280;56754;51.568;5.048;2023-01-20T13:45:26;101318.00;;;12.77;52.14
69535;BME280;56754;51.568;5.048;2023-01-20T13:48:24;101316.28;;;12.72;52.36
69535;BME280;56754;51.568;5.048;2023-01-20T13:50:49;101312.00;;;12.71;53.04
69535;BME280;56754;51.568;5.048;2023-01-20T13:53:25;101316.28;;;12.72;53.44
69535;BME280;56754;51.568;5.048;2023-01-20T13:55:56;101315.16;;;12.73;53.71
69535;BME280;56754;51.568;5.048;2023-01-20T13:58:30;101323.22;;;12.73;53.32
69535;BME280;56754;51.568;5.048;2023-01-20T14:01:01;101323.09;;;12.78;52.87
69535;BME280;56754;51.568;5.048;2023-01-20T14:03:32;101328.91;;;12.80;52.45
69535;BME280;56754;51.568;5.048;2023-01-20T14:06:04;101332.69;;;12.79;52.27
69535;BME280;56754;51.568;5.048;2023-01-20T14:08:37;101328.75;;;12.77;52.18
69535;BME280;56754;51.568;5.048;2023-01-20T14:11:09;101333.16;;;12.72;52.12
69535;BME280;56754;51.568;5.048;2023-01-20T14:13:35;101339.16;;;12.69;52.22
69535;BME280;56754;51.568;5.048;2023-01-20T14:16:00;101341.84;;;12.69;52.74
69535;BME280;56754;51.568;5.048;2023-01-20T14:18:26;101339.94;;;12.70;53.08
69535;BME280;56754;51.568;5.048;2023-01-20T14:20:56;101347.66;;;12.71;53.40
69535;BME280;56754;51.568;5.048;2023-01-20T14:23:31;101348.47;;;12.72;53.23
69535;BME280;56754;51.568;5.048;2023-01-20T14:25:59;101356.34;;;12.77;52.80
69535;BME280;56754;51.568;5.048;2023-01-20T14:28:25;101357.94;;;12.78;52.45
69535;BME280;56754;51.568;5.048;2023-01-20T14:31:10;101360.63;;;12.78;52.03
69535;BME280;56754;51.568;5.048;2023-01-20T14:33:59;101358.09;;;12.73;52.00
69535;BME280;56754;51.568;5.048;2023-01-20T14:36:28;101365.19;;;12.69;51.95
69535;BME280;56754;51.568;5.048;2023-01-20T14:38:56;101362.63;;;12.64;52.03
69535;BME280;56754;51.568;5.048;2023-01-20T14:44:21;101379.81;;;12.63;53.20
69535;BME280;56754;51.568;5.048;2023-01-20T14:46:52;101381.41;;;12.64;53.64